sensor_id;sensor_type;location;lat;lon;timestamp;P1;durP1;ratioP1;P2;durP2;ratioP2
5195;SDS011;2617;51.006;12.436;2023-07-09T00:02:29;5.80;;;5.30;;
5195;SDS011;2617;51.006;12.436;2023-07-09T00:07:31;8.75;;;5.55;;
5195;SDS011;2617;51.006;12.436;2023-07-09T00:12:33;6.90;;;5.17;;
5195;SDS011;2617;51.006;12.436;2023-07-09T00:17:35;9.80;;;5.90;;
5195;SDS011;2617;51.006;12.436;2023-07-09T00:22:37;7.13;;;6.27;;
5195;SDS011;2617;51.006;12.436;2023-07-09T00:27:39;6.97;;;5.60;;
5195;SDS011;2617;51.006;12.436;2023-07-09T00:32:41;8.03;;;5.80;;
5195;SDS011;2617;51.006;12.436;2023-07-09T00:37:44;8.93;;;5.90;;
5195;SDS011;2617;51.006;12.436;2023-07-09T00:42:47;7.75;;;5.90;;
5195;SDS011;2617;51.006;12.436;2023-07-09T00:48:04;7.15;;;4.62;;
5195;SDS011;2617;51.006;12.436;2023-07-09T00:53:08;8.60;;;5.90;;
5195;SDS011;2617;51.006;12.436;2023-07-09T00:58:07;7.27;;;6.07;;
5195;SDS011;2617;51.006;12.436;2023-07-09T01:03:09;6.63;;;4.73;;
5195;SDS011;2617;51.006;12.436;2023-07-09T01:08:10;8.30;;;5.67;;
5195;SDS011;2617;51.006;12.436;2023-07-09T01:13:11;6.50;;;5.30;;
5195;SDS011;2617;51.006;12.436;2023-07-09T01:18:14;6.20;;;5.12;;
5195;SDS011;2617;51.006;12.436;2023-07-09T01:23:15;6.23;;;5.67;;
5195;SDS011;2617;51.006;12.436;2023-07-09T01:28:18;6.80;;;5.97;;
5195;SDS011;2617;51.006;12.436;2023-07-09T01:33:19;7.87;;;5.40;;
5195;SDS011;2617;51.006;12.436;2023-07-09T01:38:21;5.67;;;4.70;;
5195;SDS011;2617;51.006;12.436;2023-07-09T01:43:23;6.40;;;5.50;;
5195;SDS011;2617;51.006;12.436;2023-07-09T01:48:25;8.03;;;5.87;;
5195;SDS011;2617;51.006;12.436;2023-07-09T01:53:26;10.30;;;6.20;;
5195;SDS011;2617;51.006;12.436;2023-07-09T01:58:28;7.57;;;5.87;;
5195;SDS011;2617;51.006;12.436;2023-07-09T02:03:30;7.87;;;5.47;;
5195;SDS011;2617;51.006;12.436;2023-07-09T02:08:32;7.07;;;5.50;;
5195;SDS011;2617;51.006;12.436;2023-07-09T02:13:34;10.20;;;6.97;;
5195;SDS011;2617;51.006;12.436;2023-07-09T02:18:36;7.77;;;6.50;;
5195;SDS011;2617;51.006;12.436;2023-07-09T02:23:38;9.00;;;6.40;;
5195;SDS011;2617;51.006;12.436;2023-07-09T02:28:40;6.03;;;5.53;;
5195;SDS011;2617;51.006;12.436;2023-07-09T02:33:41;6.73;;;5.90;;
5195;SDS011;2617;51.006;12.436;2023-07-09T02:38:44;13.33;;;5.70;;
5195;SDS011;2617;51.006;12.436;2023-07-09T02:43:47;8.97;;;6.40;;
5195;SDS011;2617;51.006;12.436;2023-07-09T02:48:48;8.40;;;6.50;;
5195;SDS011;2617;51.006;12.436;2023-07-09T02:53:50;7.68;;;6.75;;
5195;SDS011;2617;51.006;12.436;2023-07-09T02:58:52;7.83;;;6.90;;
5195;SDS011;2617;51.006;12.436;2023-07-09T03:03:54;8.23;;;7.30;;
5195;SDS011;2617;51.006;12.436;2023-07-09T03:08:55;8.13;;;6.22;;
5195;SDS011;2617;51.006;12.436;2023-07-09T03:13:57;7.97;;;5.93;;
5195;SDS011;2617;51.006;12.436;2023-07-09T03:19:00;8.93;;;6.50;;
5195;SDS011;2617;51.006;12.436;2023-07-09T03:24:01;7.03;;;6.10;;
5195;SDS011;2617;51.006;12.436;2023-07-09T03:29:03;11.77;;;7.00;;
5195;SDS011;2617;51.006;12.436;2023-07-09T03:34:05;17.73;;;6.37;;
5195;SDS011;2617;51.006;12.436;2023-07-09T03:39:08;11.17;;;6.57;;
5195;SDS011;2617;51.006;12.436;2023-07-09T03:44:09;9.30;;;6.20;;
5195;SDS011;2617;51.006;12.436;2023-07-09T03:49:11;7.83;;;5.80;;
5195;SDS011;2617;51.006;12.436;2023-07-09T03:54:13;8.43;;;5.50;;
5195;SDS011;2617;51.006;12.436;2023-07-09T03:59:14;8.17;;;6.57;;
5195;SDS011;2617;51.006;12.436;2023-07-09T04:04:17;7.50;;;6.40;;
5195;SDS011;2617;51.006;12.436;2023-07-09T04:09:19;8.90;;;5.80;;
5195;SDS011;2617;51.006;12.436;2023-07-09T04:14:22;6.90;;;5.80;;
5195;SDS011;2617;51.006;12.436;2023-07-09T04:19:24;10.00;;;6.10;;
5195;SDS011;2617;51.006;12.436;2023-07-09T04:24:27;6.00;;;5.27;;
5195;SDS011;2617;51.006;12.436;2023-07-09T04:29:30;7.17;;;5.57;;
5195;SDS011;2617;51.006;12.436;2023-07-09T04:34:32;8.73;;;4.87;;
5195;SDS011;2617;51.006;12.436;2023-07-09T04:39:34;5.77;;;5.10;;
5195;SDS011;2617;51.006;12.436;2023-07-09T04:44:35;8.35;;;5.50;;
5195;SDS011;2617;51.006;12.436;2023-07-09T04:49:37;5.43;;;4.37;;
5195;SDS011;2617;51.006;12.436;2023-07-09T04:54:40;5.53;;;4.80;;
5195;SDS011;2617;51.006;12.436;2023-07-09T04:59:41;5.27;;;4.77;;
5195;SDS011;2617;51.006;12.436;2023-07-09T05:04:43;11.43;;;5.33;;
5195;SDS011;2617;51.006;12.436;2023-07-09T05:09:46;6.40;;;4.80;;
5195;SDS011;2617;51.006;12.436;2023-07-09T05:14:48;7.13;;;5.00;;
5195;SDS011;2617;51.006;12.436;2023-07-09T05:19:50;5.20;;;4.63;;
5195;SDS011;2617;51.006;12.436;2023-07-09T05:24:51;4.90;;;4.50;;
5195;SDS011;2617;51.006;12.436;2023-07-09T05:29:54;6.60;;;5.07;;
5195;SDS011;2617;51.006;12.436;2023-07-09T05:34:56;6.80;;;5.07;;
5195;SDS011;2617;51.006;12.436;2023-07-09T05:39:59;5.25;;;4.62;;
5195;SDS011;2617;51.006;12.436;2023-07-09T05:45:01;5.72;;;4.93;;
5195;SDS011;2617;51.006;12.436;2023-07-09T05:50:04;8.48;;;5.18;;
5195;SDS011;2617;51.006;12.436;2023-07-09T05:55:06;4.30;;;3.90;;
5195;SDS011;2617;51.006;12.436;2023-07-09T06:00:09;4.60;;;4.20;;
5195;SDS011;2617;51.006;12.436;2023-07-09T06:05:11;5.60;;;4.93;;
5195;SDS011;2617;51.006;12.436;2023-07-09T06:10:13;8.27;;;4.53;;
5195;SDS011;2617;51.006;12.436;2023-07-09T06:15:15;6.40;;;5.13;;
5195;SDS011;2617;51.006;12.436;2023-07-09T06:20:17;6.97;;;4.30;;
5195;SDS011;2617;51.006;12.436;2023-07-09T06:25:19;6.30;;;5.63;;
5195;SDS011;2617;51.006;12.436;2023-07-09T06:30:20;6.00;;;4.93;;
5195;SDS011;2617;51.006;12.436;2023-07-09T06:35:22;8.75;;;5.28;;
5195;SDS011;2617;51.006;12.436;2023-07-09T06:40:25;6.50;;;5.07;;
5195;SDS011;2617;51.006;12.436;2023-07-09T06:45:26;5.77;;;4.83;;
5195;SDS011;2617;51.006;12.436;2023-07-09T06:50:32;5.50;;;4.50;;
5195;SDS011;2617;51.006;12.436;2023-07-09T06:55:31;11.93;;;4.93;;
5195;SDS011;2617;51.006;12.436;2023-07-09T07:00:34;4.65;;;4.22;;
5195;SDS011;2617;51.006;12.436;2023-07-09T07:05:35;11.30;;;5.03;;
5195;SDS011;2617;51.006;12.436;2023-07-09T07:10:37;5.70;;;4.87;;
5195;SDS011;2617;51.006;12.436;2023-07-09T07:15:39;5.10;;;4.40;;
5195;SDS011;2617;51.006;12.436;2023-07-09T07:20:41;7.40;;;5.40;;
5195;SDS011;2617;51.006;12.436;2023-07-09T07:25:44;6.13;;;4.67;;
5195;SDS011;2617;51.006;12.436;2023-07-09T07:30:45;5.53;;;4.47;;
5195;SDS011;2617;51.006;12.436;2023-07-09T07:35:47;5.60;;;4.80;;
5195;SDS011;2617;51.006;12.436;2023-07-09T07:40:49;7.97;;;5.10;;
5195;SDS011;2617;51.006;12.436;2023-07-09T07:45:51;4.73;;;4.23;;
5195;SDS011;2617;51.006;12.436;2023-07-09T07:50:57;5.77;;;4.67;;
5195;SDS011;2617;51.006;12.436;2023-07-09T07:55:55;6.10;;;4.50;;
5195;SDS011;2617;51.006;12.436;2023-07-09T08:00:57;4.70;;;4.32;;
5195;SDS011;2617;51.006;12.436;2023-07-09T08:05:58;7.32;;;5.10;;
5195;SDS011;2617;51.006;12.436;2023-07-09T08:11:02;5.37;;;4.70;;
5195;SDS011;2617;51.006;12.436;2023-07-09T08:16:04;4.87;;;4.18;;
5195;SDS011;2617;51.006;12.436;2023-07-09T08:21:06;9.87;;;4.40;;
5195;SDS011;2617;51.006;12.436;2023-07-09T08:26:08;5.43;;;4.83;;
5195;SDS011;2617;51.006;12.436;2023-07-09T08:31:09;6.60;;;5.10;;
5195;SDS011;2617;51.006;12.436;2023-07-09T08:36:12;8.87;;;4.30;;
5195;SDS011;2617;51.006;12.436;2023-07-09T08:41:20;5.10;;;4.60;;
5195;SDS011;2617;51.006;12.436;2023-07-09T08:46:20;5.13;;;4.60;;
5195;SDS011;2617;51.006;12.436;2023-07-09T08:51:33;5.87;;;5.27;;
5195;SDS011;2617;51.006;12.436;2023-07-09T08:56:34;5.82;;;4.47;;
5195;SDS011;2617;51.006;12.436;2023-07-09T09:01:36;4.13;;;3.73;;
5195;SDS011;2617;51.006;12.436;2023-07-09T09:06:38;6.67;;;4.40;;
5195;SDS011;2617;51.006;12.436;2023-07-09T09:11:43;6.60;;;4.50;;
5195;SDS011;2617;51.006;12.436;2023-07-09T09:16:46;6.13;;;4.67;;
5195;SDS011;2617;51.006;12.436;2023-07-09T09:21:48;4.13;;;3.77;;
5195;SDS011;2617;51.006;12.436;2023-07-09T09:26:50;4.60;;;4.15;;
5195;SDS011;2617;51.006;12.436;2023-07-09T09:31:54;4.90;;;4.27;;
5195;SDS011;2617;51.006;12.436;2023-07-09T09:36:55;4.53;;;4.13;;
5195;SDS011;2617;51.006;12.436;2023-07-09T09:41:57;4.53;;;3.53;;
5195;SDS011;2617;51.006;12.436;2023-07-09T09:46:58;4.55;;;3.80;;
5195;SDS011;2617;51.006;12.436;2023-07-09T09:52:01;4.37;;;3.97;;
5195;SDS011;2617;51.006;12.436;2023-07-09T09:57:03;3.78;;;3.40;;
5195;SDS011;2617;51.006;12.436;2023-07-09T10:02:13;4.00;;;3.63;;
5195;SDS011;2617;51.006;12.436;2023-07-09T10:07:07;4.65;;;3.70;;
5195;SDS011;2617;51.006;12.436;2023-07-09T10:17:35;4.47;;;3.60;;
5195;SDS011;2617;51.006;12.436;2023-07-09T10:22:46;4.97;;;3.78;;
5195;SDS011;2617;51.006;12.436;2023-07-09T10:33:08;4.18;;;3.53;;
5195;SDS011;2617;51.006;12.436;2023-07-09T10:38:21;5.70;;;3.70;;
5195;SDS011;2617;51.006;12.436;2023-07-09T10:48:44;3.93;;;3.60;;
5195;SDS011;2617;51.006;12.436;2023-07-09T10:53:47;4.10;;;3.67;;
5195;SDS011;2617;51.006;12.436;2023-07-09T10:58:57;4.57;;;3.87;;
5195;SDS011;2617;51.006;12.436;2023-07-09T11:04:00;3.90;;;3.47;;
5195;SDS011;2617;51.006;12.436;2023-07-09T11:09:01;4.07;;;3.33;;
5195;SDS011;2617;51.006;12.436;2023-07-09T11:14:04;4.70;;;3.65;;
5195;SDS011;2617;51.006;12.436;2023-07-09T11:19:04;3.95;;;3.55;;
5195;SDS011;2617;51.006;12.436;2023-07-09T11:24:24;6.07;;;3.93;;
5195;SDS011;2617;51.006;12.436;2023-07-09T11:29:16;4.53;;;3.60;;
5195;SDS011;2617;51.006;12.436;2023-07-09T11:34:17;3.45;;;3.15;;
5195;SDS011;2617;51.006;12.436;2023-07-09T11:39:19;4.10;;;3.70;;
5195;SDS011;2617;51.006;12.436;2023-07-09T11:44:23;6.85;;;3.45;;
5195;SDS011;2617;51.006;12.436;2023-07-09T11:49:25;6.43;;;3.50;;
5195;SDS011;2617;51.006;12.436;2023-07-09T11:54:25;5.45;;;3.17;;
5195;SDS011;2617;51.006;12.436;2023-07-09T11:59:28;3.85;;;2.90;;
5195;SDS011;2617;51.006;12.436;2023-07-09T12:04:32;6.10;;;3.50;;
5195;SDS011;2617;51.006;12.436;2023-07-09T12:09:33;4.00;;;3.70;;
5195;SDS011;2617;51.006;12.436;2023-07-09T12:14:34;5.40;;;3.73;;
5195;SDS011;2617;51.006;12.436;2023-07-09T12:19:36;5.93;;;3.90;;
5195;SDS011;2617;51.006;12.436;2023-07-09T12:24:39;8.20;;;3.70;;
5195;SDS011;2617;51.006;12.436;2023-07-09T12:29:40;5.93;;;4.25;;
5195;SDS011;2617;51.006;12.436;2023-07-09T12:34:42;4.45;;;3.83;;
5195;SDS011;2617;51.006;12.436;2023-07-09T12:39:52;5.60;;;4.05;;
5195;SDS011;2617;51.006;12.436;2023-07-09T12:44:54;5.25;;;4.68;;
5195;SDS011;2617;51.006;12.436;2023-07-09T12:50:00;7.55;;;4.07;;
5195;SDS011;2617;51.006;12.436;2023-07-09T12:55:02;5.75;;;3.83;;
5195;SDS011;2617;51.006;12.436;2023-07-09T13:00:05;5.53;;;4.35;;
5195;SDS011;2617;51.006;12.436;2023-07-09T13:05:06;5.18;;;3.80;;
5195;SDS011;2617;51.006;12.436;2023-07-09T13:10:15;5.37;;;4.03;;
5195;SDS011;2617;51.006;12.436;2023-07-09T13:20:45;5.22;;;4.10;;
5195;SDS011;2617;51.006;12.436;2023-07-09T13:25:47;4.65;;;3.70;;
5195;SDS011;2617;51.006;12.436;2023-07-09T13:30:50;6.97;;;4.25;;
5195;SDS011;2617;51.006;12.436;2023-07-09T13:35:51;5.28;;;3.80;;
5195;SDS011;2617;51.006;12.436;2023-07-09T13:40:56;7.53;;;3.83;;
5195;SDS011;2617;51.006;12.436;2023-07-09T13:45:58;5.43;;;3.78;;
5195;SDS011;2617;51.006;12.436;2023-07-09T13:50:59;4.62;;;4.18;;
5195;SDS011;2617;51.006;12.436;2023-07-09T13:56:01;7.50;;;4.07;;
5195;SDS011;2617;51.006;12.436;2023-07-09T14:01:08;4.07;;;3.53;;
5195;SDS011;2617;51.006;12.436;2023-07-09T14:06:11;5.20;;;3.90;;
5195;SDS011;2617;51.006;12.436;2023-07-09T14:11:14;5.70;;;3.77;;
5195;SDS011;2617;51.006;12.436;2023-07-09T14:16:16;5.47;;;4.50;;
5195;SDS011;2617;51.006;12.436;2023-07-09T14:21:18;5.72;;;3.67;;
5195;SDS011;2617;51.006;12.436;2023-07-09T14:26:20;4.82;;;4.10;;
5195;SDS011;2617;51.006;12.436;2023-07-09T14:31:22;5.43;;;4.10;;
5195;SDS011;2617;51.006;12.436;2023-07-09T14:36:24;8.03;;;4.00;;
5195;SDS011;2617;51.006;12.436;2023-07-09T14:41:26;5.76;;;4.12;;
5195;SDS011;2617;51.006;12.436;2023-07-09T14:46:29;4.20;;;3.80;;
5195;SDS011;2617;51.006;12.436;2023-07-09T14:51:30;5.72;;;3.50;;
5195;SDS011;2617;51.006;12.436;2023-07-09T14:56:33;6.37;;;4.10;;
5195;SDS011;2617;51.006;12.436;2023-07-09T15:01:36;7.32;;;3.75;;
5195;SDS011;2617;51.006;12.436;2023-07-09T15:06:38;5.50;;;4.60;;
5195;SDS011;2617;51.006;12.436;2023-07-09T15:11:39;6.17;;;4.13;;
5195;SDS011;2617;51.006;12.436;2023-07-09T15:16:41;4.40;;;3.97;;
5195;SDS011;2617;51.006;12.436;2023-07-09T15:21:43;5.20;;;3.87;;
5195;SDS011;2617;51.006;12.436;2023-07-09T15:26:45;5.07;;;4.53;;
5195;SDS011;2617;51.006;12.436;2023-07-09T15:31:46;6.45;;;4.32;;
5195;SDS011;2617;51.006;12.436;2023-07-09T15:36:50;5.97;;;4.75;;
5195;SDS011;2617;51.006;12.436;2023-07-09T15:41:50;4.55;;;4.15;;
5195;SDS011;2617;51.006;12.436;2023-07-09T15:46:52;6.18;;;3.70;;
5195;SDS011;2617;51.006;12.436;2023-07-09T15:51:54;5.87;;;4.05;;
5195;SDS011;2617;51.006;12.436;2023-07-09T15:56:56;6.05;;;4.43;;
5195;SDS011;2617;51.006;12.436;2023-07-09T16:02:00;4.75;;;4.15;;
5195;SDS011;2617;51.006;12.436;2023-07-09T16:07:00;6.97;;;4.60;;
5195;SDS011;2617;51.006;12.436;2023-07-09T16:12:02;7.33;;;4.83;;
5195;SDS011;2617;51.006;12.436;2023-07-09T16:17:04;6.47;;;4.50;;
5195;SDS011;2617;51.006;12.436;2023-07-09T16:22:06;4.70;;;4.17;;
5195;SDS011;2617;51.006;12.436;2023-07-09T16:27:09;6.83;;;4.40;;
5195;SDS011;2617;51.006;12.436;2023-07-09T16:32:11;7.10;;;3.83;;
5195;SDS011;2617;51.006;12.436;2023-07-09T16:37:16;6.43;;;4.20;;
5195;SDS011;2617;51.006;12.436;2023-07-09T16:42:18;5.27;;;3.63;;
5195;SDS011;2617;51.006;12.436;2023-07-09T16:47:20;5.22;;;4.05;;
5195;SDS011;2617;51.006;12.436;2023-07-09T16:52:22;8.77;;;4.80;;
5195;SDS011;2617;51.006;12.436;2023-07-09T16:57:24;4.67;;;4.03;;
5195;SDS011;2617;51.006;12.436;2023-07-09T17:02:29;6.82;;;3.90;;
5195;SDS011;2617;51.006;12.436;2023-07-09T17:07:32;5.07;;;4.05;;
5195;SDS011;2617;51.006;12.436;2023-07-09T17:12:33;5.67;;;4.23;;
5195;SDS011;2617;51.006;12.436;2023-07-09T17:17:34;5.22;;;3.65;;
5195;SDS011;2617;51.006;12.436;2023-07-09T17:22:36;4.20;;;3.80;;
5195;SDS011;2617;51.006;12.436;2023-07-09T17:27:38;4.37;;;3.97;;
5195;SDS011;2617;51.006;12.436;2023-07-09T17:32:40;7.80;;;3.80;;
5195;SDS011;2617;51.006;12.436;2023-07-09T17:37:45;4.50;;;4.00;;
5195;SDS011;2617;51.006;12.436;2023-07-09T17:42:44;4.37;;;3.80;;
5195;SDS011;2617;51.006;12.436;2023-07-09T17:47:46;6.60;;;3.92;;
5195;SDS011;2617;51.006;12.436;2023-07-09T17:52:48;6.70;;;4.40;;
5195;SDS011;2617;51.006;12.436;2023-07-09T17:57:51;7.63;;;4.27;;
5195;SDS011;2617;51.006;12.436;2023-07-09T18:02:54;8.77;;;4.83;;
5195;SDS011;2617;51.006;12.436;2023-07-09T18:07:59;5.28;;;4.10;;
5195;SDS011;2617;51.006;12.436;2023-07-09T18:13:04;4.40;;;4.00;;
5195;SDS011;2617;51.006;12.436;2023-07-09T18:18:12;5.25;;;4.43;;
5195;SDS011;2617;51.006;12.436;2023-07-09T18:23:13;6.23;;;4.17;;
5195;SDS011;2617;51.006;12.436;2023-07-09T18:28:17;8.18;;;4.57;;
5195;SDS011;2617;51.006;12.436;2023-07-09T18:33:20;9.50;;;4.00;;
5195;SDS011;2617;51.006;12.436;2023-07-09T18:38:22;11.60;;;4.40;;
5195;SDS011;2617;51.006;12.436;2023-07-09T18:43:24;6.83;;;3.90;;
5195;SDS011;2617;51.006;12.436;2023-07-09T18:48:26;6.00;;;4.17;;
5195;SDS011;2617;51.006;12.436;2023-07-09T18:53:28;10.80;;;4.67;;
5195;SDS011;2617;51.006;12.436;2023-07-09T18:58:30;5.00;;;4.30;;
5195;SDS011;2617;51.006;12.436;2023-07-09T19:03:33;5.83;;;4.30;;
5195;SDS011;2617;51.006;12.436;2023-07-09T19:08:34;13.80;;;3.83;;
5195;SDS011;2617;51.006;12.436;2023-07-09T19:13:36;9.10;;;6.13;;
5195;SDS011;2617;51.006;12.436;2023-07-09T19:18:39;8.63;;;4.33;;
5195;SDS011;2617;51.006;12.436;2023-07-09T19:23:40;7.33;;;4.60;;
5195;SDS011;2617;51.006;12.436;2023-07-09T19:28:43;9.27;;;4.32;;
5195;SDS011;2617;51.006;12.436;2023-07-09T19:33:45;6.40;;;4.70;;
5195;SDS011;2617;51.006;12.436;2023-07-09T19:38:46;7.90;;;4.47;;
5195;SDS011;2617;51.006;12.436;2023-07-09T19:43:48;9.80;;;4.53;;
5195;SDS011;2617;51.006;12.436;2023-07-09T19:48:51;6.07;;;3.97;;
5195;SDS011;2617;51.006;12.436;2023-07-09T19:53:52;7.13;;;4.90;;
5195;SDS011;2617;51.006;12.436;2023-07-09T19:58:54;6.47;;;4.43;;
5195;SDS011;2617;51.006;12.436;2023-07-09T20:03:56;8.53;;;4.37;;
5195;SDS011;2617;51.006;12.436;2023-07-09T20:08:58;13.40;;;4.87;;
5195;SDS011;2617;51.006;12.436;2023-07-09T20:14:00;5.57;;;4.40;;
5195;SDS011;2617;51.006;12.436;2023-07-09T20:19:04;6.63;;;5.07;;
5195;SDS011;2617;51.006;12.436;2023-07-09T20:24:10;5.93;;;4.70;;
5195;SDS011;2617;51.006;12.436;2023-07-09T20:29:11;9.77;;;5.40;;
5195;SDS011;2617;51.006;12.436;2023-07-09T20:34:15;7.15;;;4.43;;
5195;SDS011;2617;51.006;12.436;2023-07-09T20:39:17;8.13;;;4.50;;
5195;SDS011;2617;51.006;12.436;2023-07-09T20:44:21;8.23;;;4.27;;
5195;SDS011;2617;51.006;12.436;2023-07-09T20:49:25;5.70;;;4.03;;
5195;SDS011;2617;51.006;12.436;2023-07-09T20:54:29;6.27;;;4.57;;
5195;SDS011;2617;51.006;12.436;2023-07-09T20:59:30;7.60;;;5.17;;
5195;SDS011;2617;51.006;12.436;2023-07-09T21:04:33;7.30;;;4.50;;
5195;SDS011;2617;51.006;12.436;2023-07-09T21:09:35;5.65;;;4.20;;
5195;SDS011;2617;51.006;12.436;2023-07-09T21:14:37;7.03;;;4.00;;
5195;SDS011;2617;51.006;12.436;2023-07-09T21:19:39;12.70;;;5.18;;
5195;SDS011;2617;51.006;12.436;2023-07-09T21:24:42;8.02;;;5.28;;
5195;SDS011;2617;51.006;12.436;2023-07-09T21:29:43;7.62;;;4.55;;
5195;SDS011;2617;51.006;12.436;2023-07-09T21:34:46;7.72;;;4.80;;
5195;SDS011;2617;51.006;12.436;2023-07-09T21:39:48;6.63;;;5.10;;
5195;SDS011;2617;51.006;12.436;2023-07-09T21:44:49;6.00;;;3.97;;
5195;SDS011;2617;51.006;12.436;2023-07-09T21:49:52;9.33;;;4.63;;
5195;SDS011;2617;51.006;12.436;2023-07-09T21:54:53;5.40;;;4.60;;
5195;SDS011;2617;51.006;12.436;2023-07-09T21:59:56;6.23;;;4.90;;
5195;SDS011;2617;51.006;12.436;2023-07-09T22:04:57;8.87;;;4.80;;
5195;SDS011;2617;51.006;12.436;2023-07-09T22:09:59;7.57;;;5.20;;
5195;SDS011;2617;51.006;12.436;2023-07-09T22:15:08;8.00;;;4.90;;
5195;SDS011;2617;51.006;12.436;2023-07-09T22:20:04;11.03;;;5.23;;
5195;SDS011;2617;51.006;12.436;2023-07-09T22:30:14;6.37;;;5.20;;
5195;SDS011;2617;51.006;12.436;2023-07-09T22:35:16;8.33;;;4.97;;
5195;SDS011;2617;51.006;12.436;2023-07-09T22:40:20;9.73;;;4.87;;
5195;SDS011;2617;51.006;12.436;2023-07-09T22:45:23;6.90;;;4.87;;
5195;SDS011;2617;51.006;12.436;2023-07-09T22:50:28;6.47;;;5.30;;
5195;SDS011;2617;51.006;12.436;2023-07-09T22:55:34;6.40;;;5.10;;
5195;SDS011;2617;51.006;12.436;2023-07-09T23:00:43;7.20;;;4.60;;
5195;SDS011;2617;51.006;12.436;2023-07-09T23:05:44;6.50;;;4.70;;
5195;SDS011;2617;51.006;12.436;2023-07-09T23:10:46;8.57;;;5.30;;
5195;SDS011;2617;51.006;12.436;2023-07-09T23:15:48;8.67;;;5.40;;
5195;SDS011;2617;51.006;12.436;2023-07-09T23:20:50;8.57;;;5.17;;
5195;SDS011;2617;51.006;12.436;2023-07-09T23:25:53;4.97;;;4.47;;
5195;SDS011;2617;51.006;12.436;2023-07-09T23:30:54;5.10;;;4.10;;
5195;SDS011;2617;51.006;12.436;2023-07-09T23:35:57;8.73;;;5.20;;
5195;SDS011;2617;51.006;12.436;2023-07-09T23:40:59;6.00;;;4.73;;
5195;SDS011;2617;51.006;12.436;2023-07-09T23:46:02;8.00;;;5.37;;
5195;SDS011;2617;51.006;12.436;2023-07-09T23:51:05;6.23;;;5.07;;
5195;SDS011;2617;51.006;12.436;2023-07-09T23:56:09;5.20;;;4.37;;
